메인 페이지
METAR-TAF:

METAR-TAF

공항 :

그린우드, 미시시피, 미국

위도: 33-29-33N, 경도: 090-05-01W, 고도: 47m

현재 날씨관측

예보는 23분 전, 06:59시(UTC)에 발표되었습니다.
무풍
온도 13°C
습도 38%
기압 1016 hPa
시정: 0.4km
연무

METAR: KGWO 220659Z AUTO 00000KT 1/4SM HZ VV001 13/M01 A2999 RMK AO2 T01281006 $

시각: 02:22 (07:22 UTC)

예보

예보는 1 시간 28분 전, 05:54시(UTC)에 발표되었습니다.
예보 대상 시간: 22일 06시부터 23일 06시까지 (UTC)
2kt
시정: 1.6km
고도 200ft 상공
박무
22일 0730시부터 (UTC)
서북서8kt
시정: 10km
맑음

TAF: KGWO 220554Z 2206/2306 27002KT 1SM BR VV002 FM220730 30008KT P6SM SKC

4,000개 이상의 공항 관측 자료 및 예보 (METAR 및 TAF 보고).

지도상에서 검색 가능한 기상관측소가 노란 점과 빨간 점으로 표시되어 있습니다.

기상관측소 명을 보려면 표시 위로 마우스를 이동하세요.

날씨 관측과 예보를 보려면 클릭하세요.

지도 변경 : 확대하려면 엑스 표시가 있는 녹색 버튼, 축소하려면 빼기 표시가 있는 녹색 버튼, 다음 페이지의 지도를 보려면 녹색 화살표를 클릭하세요.


METAR-TAF: